createdAt,value
2018-02-20T00:00:01.965Z,66.28
2018-02-20T00:02:29.429Z,65.87
2018-02-20T00:04:56.959Z,64.30
2018-02-20T00:07:24.418Z,64.53
2018-02-20T00:09:51.906Z,68.93
2018-02-20T00:12:19.548Z,66.60
2018-02-20T00:14:47.017Z,73.72
2018-02-20T00:17:15.464Z,60.03
2018-02-20T00:19:42.943Z,77.03
2018-02-20T00:22:10.412Z,69.28
2018-02-20T00:24:38.167Z,67.78
2018-02-20T00:27:05.931Z,62.17
2018-02-20T00:29:33.392Z,58.58
2018-02-20T00:32:00.939Z,78.75
2018-02-20T00:34:28.399Z,65.40
2018-02-20T00:36:55.864Z,70.53
2018-02-20T00:39:23.335Z,57.00
2018-02-20T00:41:51.565Z,56.70
2018-02-20T00:44:19.023Z,68.47
2018-02-20T00:46:46.501Z,46.55
2018-02-20T00:49:13.984Z,62.70
2018-02-20T00:51:41.648Z,52.13
2018-02-20T00:54:09.113Z,61.70
2018-02-20T00:56:36.632Z,67.72
2018-02-20T00:59:04.148Z,56.37
2018-02-20T01:01:31.872Z,49.08
2018-02-20T01:03:59.560Z,53.25
2018-02-20T01:06:27.103Z,48.90
2018-02-20T01:08:54.585Z,47.47
2018-02-20T01:11:22.326Z,41.00
2018-02-20T01:13:49.778Z,37.28
2018-02-20T01:16:17.358Z,34.63
2018-02-20T01:18:45.617Z,49.50
2018-02-20T01:21:13.293Z,54.65
2018-02-20T01:23:40.844Z,44.63
2018-02-20T01:26:08.606Z,40.67
2018-02-20T01:28:36.272Z,51.45
2018-02-20T01:31:03.823Z,53.30
2018-02-20T01:33:31.296Z,49.45
2018-02-20T01:35:58.771Z,43.78
2018-02-20T01:38:26.663Z,41.67
2018-02-20T01:40:54.268Z,50.67
2018-02-20T01:43:21.728Z,62.60
2018-02-20T01:45:49.500Z,38.80
2018-02-20T01:48:17.080Z,54.60
2018-02-20T01:50:56.998Z,41.37
2018-02-20T01:53:24.766Z,48.13
2018-02-20T01:55:52.232Z,46.05
2018-02-20T01:58:20.002Z,47.05
2018-02-20T02:00:47.759Z,58.28
2018-02-20T02:03:15.524Z,50.95
2018-02-20T02:05:43.287Z,46.47
2018-02-20T02:08:11.060Z,46.35
2018-02-20T02:10:38.815Z,46.60
2018-02-20T02:13:06.283Z,52.10
2018-02-20T02:15:33.759Z,52.47
2018-02-20T02:18:01.223Z,47.17
2018-02-20T02:20:28.968Z,56.35
2018-02-20T02:22:56.721Z,47.00
2018-02-20T02:25:24.351Z,58.17
2018-02-20T02:27:51.804Z,41.88
2018-02-20T02:30:19.408Z,49.60
2018-02-20T02:32:47.076Z,53.65
2018-02-20T02:35:14.546Z,40.95
2018-02-20T02:37:42.095Z,47.70
2018-02-20T02:40:09.772Z,46.90
2018-02-20T02:42:38.227Z,45.55
2018-02-20T02:45:05.996Z,51.05
2018-02-20T02:47:33.678Z,50.78
2018-02-20T02:50:01.140Z,95.35
2018-02-20T02:52:28.612Z,50.17
2018-02-20T02:54:56.140Z,53.30
2018-02-20T02:57:23.860Z,57.13
2018-02-20T02:59:51.673Z,40.85
2018-02-20T03:02:19.444Z,39.42
2018-02-20T03:04:47.816Z,42.38
2018-02-20T03:07:15.573Z,43.42
2018-02-20T03:09:43.038Z,47.80
2018-02-20T03:12:10.502Z,47.38
2018-02-20T03:14:38.263Z,47.80
2018-02-20T03:17:05.728Z,51.50
2018-02-20T03:19:33.191Z,53.67
2018-02-20T03:22:00.660Z,35.00
2018-02-20T03:24:28.128Z,54.35
2018-02-20T03:26:55.607Z,45.12
2018-02-20T03:29:23.311Z,56.00
2018-02-20T03:31:50.769Z,54.53
2018-02-20T03:34:18.529Z,52.70
2018-02-20T03:36:46.296Z,49.08
2018-02-20T03:39:14.060Z,39.95
2018-02-20T03:41:41.516Z,46.45
2018-02-20T03:44:09.236Z,38.15
2018-02-20T03:46:36.740Z,47.08
2018-02-20T03:49:04.513Z,41.65
2018-02-20T03:51:31.973Z,42.38
2018-02-20T03:53:59.728Z,54.53
2018-02-20T03:56:27.492Z,44.67
2018-02-20T03:58:54.957Z,53.50
2018-02-20T04:01:22.720Z,48.33
2018-02-20T04:03:50.484Z,46.30
2018-02-20T04:06:18.263Z,50.97
2018-02-20T04:08:45.740Z,58.65
2018-02-20T04:11:13.474Z,50.25
2018-02-20T04:13:41.238Z,49.47
2018-02-20T04:16:09.004Z,57.62
2018-02-20T04:18:36.467Z,59.85
2018-02-20T04:21:04.534Z,57.78
2018-02-20T04:23:32.204Z,60.60
2018-02-20T04:25:59.655Z,54.60
2018-02-20T04:28:28.131Z,65.47
2018-02-20T04:30:55.596Z,59.30
2018-02-20T04:33:23.363Z,60.83
2018-02-20T04:35:51.116Z,50.15
2018-02-20T04:38:18.888Z,59.55
2018-02-20T04:40:46.652Z,67.28
2018-02-20T04:43:14.420Z,53.17
2018-02-20T04:45:42.491Z,47.80
2018-02-20T04:48:10.251Z,45.28
2018-02-20T04:50:37.720Z,61.42
2018-02-20T04:53:05.176Z,58.08
2018-02-20T04:55:32.649Z,50.55
2018-02-20T04:58:00.120Z,50.80
2018-02-20T05:00:27.852Z,49.05
2018-02-20T05:02:55.612Z,52.08
2018-02-20T05:05:23.380Z,55.72
2018-02-20T05:07:50.920Z,51.53
2018-02-20T05:10:18.608Z,53.87
2018-02-20T05:12:46.112Z,45.05
2018-02-20T05:15:13.611Z,59.20
2018-02-20T05:17:41.213Z,49.08
2018-02-20T05:20:09.631Z,41.08
2018-02-20T05:22:37.107Z,49.08
2018-02-20T05:25:04.584Z,43.00
2018-02-20T05:27:32.045Z,42.72
2018-02-20T05:29:59.728Z,39.80
2018-02-20T05:32:27.260Z,50.70
2018-02-20T05:34:54.720Z,45.20
2018-02-20T05:37:22.188Z,39.35
2018-02-20T05:39:49.940Z,53.30
2018-02-20T05:42:17.411Z,42.20
2018-02-20T05:44:45.308Z,46.88
2018-02-20T05:47:12.775Z,45.60
2018-02-20T05:49:40.383Z,45.33
2018-02-20T05:52:07.848Z,41.10
2018-02-20T05:54:35.318Z,45.33
2018-02-20T05:57:02.884Z,45.83
2018-02-20T05:59:31.120Z,60.42
2018-02-20T06:01:58.584Z,42.62
2018-02-20T06:04:26.055Z,47.42
2018-02-20T06:06:53.821Z,47.88
2018-02-20T06:09:21.587Z,39.42
2018-02-20T06:11:49.065Z,47.92
2018-02-20T06:14:16.728Z,44.50
2018-02-20T06:16:44.196Z,45.08
2018-02-20T06:19:11.664Z,41.20
2018-02-20T06:21:39.184Z,33.83
2018-02-20T06:24:06.860Z,37.78
2018-02-20T06:26:34.319Z,45.10
2018-02-20T06:29:01.870Z,51.65
2018-02-20T06:31:29.504Z,66.60
2018-02-20T06:33:56.999Z,60.08
2018-02-20T06:36:24.550Z,40.17
2018-02-20T06:38:52.254Z,58.92
2018-02-20T06:41:19.776Z,44.90
2018-02-20T06:43:47.235Z,41.10
2018-02-20T06:46:14.992Z,41.08
2018-02-20T06:48:42.668Z,48.47
2018-02-20T06:51:10.140Z,36.35
2018-02-20T06:53:37.664Z,43.47
2018-02-20T06:56:05.216Z,48.67
2018-02-20T06:58:32.683Z,55.40
2018-02-20T07:01:00.158Z,65.55
2018-02-20T07:03:27.632Z,63.03
2018-02-20T07:05:55.855Z,46.85
2018-02-20T07:08:23.319Z,40.12
2018-02-20T07:10:50.800Z,64.03
2018-02-20T07:13:18.275Z,45.40
2018-02-20T07:15:45.736Z,52.70
2018-02-20T07:18:13.476Z,58.97
2018-02-20T07:20:41.166Z,64.68
2018-02-20T07:23:08.754Z,53.05
2018-02-20T07:25:36.311Z,57.88
2018-02-20T07:28:03.785Z,58.13
2018-02-20T07:30:31.267Z,47.28
2018-02-20T07:32:58.736Z,64.82
2018-02-20T07:35:26.296Z,52.50
2018-02-20T07:37:54.065Z,46.45
2018-02-20T07:40:21.747Z,58.70
2018-02-20T07:42:49.216Z,47.20
2018-02-20T07:45:16.747Z,57.03
2018-02-20T07:47:44.513Z,39.08
2018-02-20T07:50:12.149Z,41.13
2018-02-20T07:52:39.621Z,50.60
2018-02-20T07:55:07.105Z,53.30
2018-02-20T07:57:34.648Z,46.33
2018-02-20T08:00:02.109Z,36.70
2018-02-20T08:02:29.571Z,43.70
2018-02-20T08:04:57.255Z,50.30
2018-02-20T08:07:24.924Z,40.58
2018-02-20T08:09:53.150Z,53.35
2018-02-20T08:12:20.923Z,40.50
2018-02-20T08:14:48.695Z,42.25
2018-02-20T08:17:16.167Z,47.70
2018-02-20T08:19:43.906Z,61.42
2018-02-20T08:22:11.388Z,46.15
2018-02-20T08:24:38.859Z,45.12
2018-02-20T08:27:06.320Z,45.40
2018-02-20T08:29:34.056Z,53.95
2018-02-20T08:32:01.517Z,51.30
2018-02-20T08:34:28.984Z,51.30
2018-02-20T08:36:56.731Z,45.35
2018-02-20T08:39:24.196Z,38.88
2018-02-20T08:41:51.664Z,39.28
2018-02-20T08:44:19.412Z,43.53
2018-02-20T08:46:46.880Z,48.83
2018-02-20T08:49:14.553Z,42.80
2018-02-20T08:51:42.098Z,47.53
2018-02-20T08:54:09.863Z,51.75
2018-02-20T08:56:37.543Z,45.83
2018-02-20T08:59:05.021Z,40.78
2018-02-20T09:01:32.510Z,48.47
2018-02-20T09:03:59.972Z,42.92
2018-02-20T09:06:27.446Z,50.03
2018-02-20T09:08:54.908Z,42.22
2018-02-20T09:11:22.429Z,41.83
2018-02-20T09:13:50.053Z,43.08
2018-02-20T09:16:18.280Z,53.67
2018-02-20T09:18:45.786Z,47.25
2018-02-20T09:21:13.432Z,41.35
2018-02-20T09:23:41.105Z,39.00
2018-02-20T09:26:08.576Z,39.33
2018-02-20T09:28:36.958Z,41.25
2018-02-20T09:31:04.421Z,43.30
2018-02-20T09:33:31.947Z,41.70
2018-02-20T09:35:59.412Z,41.65
2018-02-20T09:38:26.893Z,38.15
2018-02-20T09:40:54.350Z,48.05
2018-02-20T09:43:22.000Z,49.15
2018-02-20T09:45:50.468Z,34.70
2018-02-20T09:48:17.928Z,38.78
2018-02-20T09:50:45.404Z,29.33
2018-02-20T09:53:12.860Z,38.38
2018-02-20T09:55:40.607Z,32.30
2018-02-20T09:58:08.071Z,33.30
2018-02-20T10:00:35.827Z,29.70
2018-02-20T10:03:03.284Z,33.17
2018-02-20T10:05:30.924Z,40.60
2018-02-20T10:07:58.509Z,23.35
2018-02-20T10:10:25.973Z,37.97
2018-02-20T10:12:53.437Z,36.60
2018-02-20T10:15:20.896Z,29.65
2018-02-20T10:17:49.260Z,39.03
2018-02-20T10:20:16.740Z,33.25
2018-02-20T10:22:44.201Z,30.42
2018-02-20T10:25:12.471Z,44.30
2018-02-20T10:27:40.936Z,33.85
2018-02-20T10:30:08.392Z,36.67
2018-02-20T10:32:35.854Z,45.15
2018-02-20T10:35:03.315Z,34.85
2018-02-20T10:37:31.073Z,29.33
2018-02-20T10:39:58.538Z,29.83
2018-02-20T10:42:25.999Z,34.03
2018-02-20T10:44:53.460Z,35.85
2018-02-20T10:47:21.209Z,35.22
2018-02-20T10:49:48.976Z,33.72
2018-02-20T10:52:16.751Z,32.28
2018-02-20T10:54:44.430Z,33.25
2018-02-20T10:57:11.900Z,40.45
2018-02-20T10:59:39.364Z,44.13
2018-02-20T11:02:06.820Z,35.60
2018-02-20T11:04:34.377Z,34.38
2018-02-20T11:07:02.109Z,32.70
2018-02-20T11:09:29.876Z,31.87
2018-02-20T11:11:57.344Z,34.88
2018-02-20T11:14:24.868Z,32.85
2018-02-20T11:16:52.558Z,32.60
2018-02-20T11:19:20.273Z,27.80
2018-02-20T11:21:47.772Z,40.75
2018-02-20T11:24:15.546Z,35.03
2018-02-20T11:26:42.995Z,36.08
2018-02-20T11:29:10.455Z,36.80
2018-02-20T11:31:38.136Z,41.35
2018-02-20T11:34:05.688Z,30.88
2018-02-20T11:36:33.225Z,32.75
2018-02-20T11:39:00.816Z,34.67
2018-02-20T11:41:28.359Z,34.35
2018-02-20T11:43:55.817Z,38.00
2018-02-20T11:46:23.281Z,41.10
2018-02-20T11:48:50.743Z,33.83
2018-02-20T11:51:18.420Z,47.53
2018-02-20T11:53:45.891Z,35.58
2018-02-20T11:56:13.411Z,36.20
2018-02-20T11:58:40.876Z,33.78
2018-02-20T12:01:08.337Z,30.45
2018-02-20T12:03:35.810Z,34.20
2018-02-20T12:06:03.272Z,33.53
2018-02-20T12:08:30.732Z,44.70
2018-02-20T12:10:58.400Z,36.47
2018-02-20T12:13:26.764Z,36.30
2018-02-20T12:15:54.220Z,40.05
2018-02-20T12:18:21.688Z,42.60
2018-02-20T12:20:49.153Z,39.53
2018-02-20T12:23:16.631Z,31.00
2018-02-20T12:25:44.091Z,32.55
2018-02-20T12:28:11.599Z,30.75
2018-02-20T12:30:39.084Z,36.17
2018-02-20T12:33:06.819Z,30.05
2018-02-20T12:35:34.283Z,23.60
2018-02-20T12:38:01.842Z,29.40
2018-02-20T12:40:29.307Z,23.35
2018-02-20T12:42:57.573Z,24.55
2018-02-20T12:45:25.032Z,39.33
2018-02-20T12:47:52.506Z,27.25
2018-02-20T12:50:20.252Z,33.10
2018-02-20T12:52:47.716Z,30.00
2018-02-20T12:55:15.188Z,28.40
2018-02-20T12:57:42.878Z,27.55
2018-02-20T13:00:10.401Z,29.25
2018-02-20T13:02:38.158Z,30.17
2018-02-20T13:05:05.666Z,31.20
2018-02-20T13:07:33.383Z,28.12
2018-02-20T13:10:00.843Z,33.08
2018-02-20T13:12:28.322Z,39.28
2018-02-20T13:14:55.947Z,40.42
2018-02-20T13:17:23.516Z,30.92
2018-02-20T13:19:50.984Z,29.95
2018-02-20T13:22:18.439Z,35.42
2018-02-20T13:24:46.004Z,36.58
2018-02-20T13:27:13.659Z,37.78
2018-02-20T13:29:41.137Z,36.28
2018-02-20T13:32:08.791Z,42.00
2018-02-20T13:34:36.257Z,43.15
2018-02-20T13:37:03.724Z,31.62
2018-02-20T13:39:31.280Z,32.67
2018-02-20T13:41:58.956Z,34.65
2018-02-20T13:44:26.483Z,42.05
2018-02-20T13:46:54.250Z,46.67
2018-02-20T13:49:21.719Z,39.35
2018-02-20T13:51:49.475Z,38.05
2018-02-20T13:54:16.935Z,41.10
2018-02-20T13:56:44.693Z,36.10
2018-02-20T13:59:12.452Z,47.25
2018-02-20T14:01:39.915Z,35.92
2018-02-20T14:04:07.673Z,46.85
2018-02-20T14:06:35.139Z,45.38
2018-02-20T14:09:02.595Z,32.05
2018-02-20T14:11:30.365Z,33.42
2018-02-20T14:13:58.176Z,38.97
2018-02-20T14:16:25.587Z,44.60
2018-02-20T14:18:53.349Z,31.60
2018-02-20T14:21:20.803Z,37.08
2018-02-20T14:23:48.262Z,33.40
2018-02-20T14:26:17.235Z,32.00
2018-02-20T14:28:44.719Z,38.75
2018-02-20T14:31:12.491Z,23.62
2018-02-20T14:33:39.960Z,33.63
2018-02-20T14:36:07.621Z,39.35
2018-02-20T14:38:35.164Z,35.88
2018-02-20T14:41:02.939Z,44.80
2018-02-20T14:43:31.166Z,35.25
2018-02-20T14:45:58.809Z,36.70
2018-02-20T14:48:26.456Z,33.40
2018-02-20T14:50:53.983Z,38.20
2018-02-20T14:53:21.464Z,34.63
2018-02-20T14:55:48.931Z,32.22
2018-02-20T14:58:16.663Z,41.65
2018-02-20T15:00:44.355Z,39.40
2018-02-20T15:03:11.826Z,42.15
2018-02-20T15:05:39.283Z,34.92
2018-02-20T15:08:06.752Z,32.40
2018-02-20T15:10:34.224Z,30.85
2018-02-20T15:13:01.691Z,29.33
2018-02-20T15:15:29.151Z,32.38
2018-02-20T15:17:56.617Z,35.50
2018-02-20T15:20:24.084Z,36.55
2018-02-20T15:22:51.572Z,33.03
2018-02-20T15:25:19.248Z,33.25
2018-02-20T15:27:46.772Z,28.50
2018-02-20T15:30:14.252Z,32.15
2018-02-20T15:32:41.860Z,29.17
2018-02-20T15:35:09.318Z,32.45
2018-02-20T15:37:36.780Z,32.28
2018-02-20T15:40:04.247Z,37.42
2018-02-20T15:42:31.776Z,36.30
2018-02-20T15:44:59.243Z,33.50
2018-02-20T15:47:26.717Z,27.58
2018-02-20T15:49:54.185Z,35.15
2018-02-20T15:52:21.651Z,38.03
2018-02-20T15:54:49.111Z,47.47
2018-02-20T15:57:16.585Z,40.72
2018-02-20T15:59:44.344Z,45.30
2018-02-20T16:02:11.807Z,41.70
2018-02-20T16:04:39.283Z,34.55
2018-02-20T16:07:06.968Z,32.03
2018-02-20T16:09:34.420Z,47.30
2018-02-20T16:12:01.893Z,34.40
2018-02-20T16:14:29.353Z,37.85
2018-02-20T16:16:57.609Z,32.90
2018-02-20T16:19:25.179Z,38.67
2018-02-20T16:21:52.693Z,41.20
2018-02-20T16:24:20.160Z,39.40
2018-02-20T16:26:47.917Z,36.35
2018-02-20T16:29:15.595Z,38.38
2018-02-20T16:31:43.098Z,36.88
2018-02-20T16:34:10.601Z,38.75
2018-02-20T16:36:38.064Z,31.25
2018-02-20T16:39:05.829Z,47.62
2018-02-20T16:41:33.554Z,47.78
2018-02-20T16:44:01.039Z,52.47
2018-02-20T16:46:28.808Z,42.22
2018-02-20T16:48:56.576Z,44.50
2018-02-20T16:51:24.040Z,41.13
2018-02-20T16:53:51.795Z,43.83
2018-02-20T16:56:19.253Z,41.90
2018-02-20T16:58:46.716Z,32.75
2018-02-20T17:01:14.384Z,37.75
2018-02-20T17:03:41.936Z,37.47
2018-02-20T17:06:09.449Z,46.78
2018-02-20T17:08:36.915Z,36.22
2018-02-20T17:11:04.372Z,43.22
2018-02-20T17:13:31.854Z,38.17
2018-02-20T17:15:59.530Z,40.15
2018-02-20T17:18:27.148Z,32.63
2018-02-20T17:20:54.756Z,44.50
2018-02-20T17:23:22.212Z,39.90
2018-02-20T17:25:49.681Z,35.47
2018-02-20T17:28:17.143Z,35.78
2018-02-20T17:30:44.804Z,43.20
2018-02-20T17:33:12.365Z,44.90
2018-02-20T17:35:40.116Z,42.08
2018-02-20T17:38:07.583Z,29.52
2018-02-20T17:40:35.044Z,33.85
2018-02-20T17:43:02.796Z,39.88
2018-02-20T17:45:30.251Z,38.15
2018-02-20T17:47:58.016Z,45.88
2018-02-20T17:50:25.480Z,42.30
2018-02-20T17:52:53.239Z,34.03
2018-02-20T17:55:20.700Z,38.97
2018-02-20T17:57:48.155Z,48.60
2018-02-20T18:00:15.839Z,45.35
2018-02-20T18:02:43.379Z,37.95
2018-02-20T18:05:10.893Z,46.22
2018-02-20T18:07:38.604Z,36.58
2018-02-20T18:10:06.068Z,56.53
2018-02-20T18:12:33.536Z,45.53
2018-02-20T18:15:01.195Z,42.55
2018-02-20T18:17:28.659Z,42.62
2018-02-20T18:19:56.116Z,29.80
2018-02-20T18:22:23.660Z,45.33
2018-02-20T18:24:51.128Z,51.28
2018-02-20T18:27:18.884Z,35.42
2018-02-20T18:29:46.652Z,57.90
2018-02-20T18:32:14.099Z,45.63
2018-02-20T18:34:41.569Z,39.95
2018-02-20T18:37:09.347Z,44.60
2018-02-20T18:39:37.011Z,57.17
2018-02-20T18:42:04.557Z,55.05
2018-02-20T18:44:32.165Z,45.08
2018-02-20T18:46:59.771Z,41.53
2018-02-20T18:49:27.235Z,53.65
2018-02-20T18:51:54.791Z,55.05
2018-02-20T18:54:22.452Z,47.92
2018-02-20T18:56:50.228Z,41.03
2018-02-20T18:59:17.993Z,50.72
2018-02-20T19:01:45.451Z,43.28
2018-02-20T19:04:13.173Z,43.47
2018-02-20T19:06:40.672Z,39.63
2018-02-20T19:09:08.344Z,69.20
2018-02-20T19:11:35.891Z,63.22
2018-02-20T19:14:03.656Z,52.78
2018-02-20T19:16:31.120Z,74.05
2018-02-20T19:18:58.792Z,69.37
2018-02-20T19:21:26.340Z,76.47
2018-02-20T19:23:54.103Z,79.55
2018-02-20T19:26:21.783Z,46.65
2018-02-20T19:28:49.255Z,53.60
2018-02-20T19:31:16.783Z,59.40
2018-02-20T19:33:44.244Z,50.97
2018-02-20T19:36:11.700Z,49.22
2018-02-20T19:38:39.380Z,42.13
2018-02-20T19:41:06.928Z,35.15
2018-02-20T19:43:34.383Z,42.53
2018-02-20T19:46:02.144Z,38.05
2018-02-20T19:48:29.613Z,38.70
2018-02-20T19:50:57.677Z,50.05
2018-02-20T19:53:25.136Z,44.25
2018-02-20T19:55:52.622Z,49.80
2018-02-20T19:58:20.272Z,53.40
2018-02-20T20:00:47.732Z,49.58
2018-02-20T20:03:15.189Z,54.10
2018-02-20T20:05:42.663Z,46.25
2018-02-20T20:08:10.184Z,44.60
2018-02-20T20:10:37.963Z,49.85
2018-02-20T20:13:05.427Z,43.65
2018-02-20T20:15:33.175Z,57.55
2018-02-20T20:18:00.660Z,49.13
2018-02-20T20:20:36.906Z,57.65
2018-02-20T20:22:55.592Z,65.72
2018-02-20T20:25:23.176Z,52.17
2018-02-20T20:27:50.927Z,94.55
2018-02-20T20:30:18.378Z,66.65
2018-02-20T20:32:45.904Z,64.47
2018-02-20T20:35:13.452Z,65.43
2018-02-20T20:37:40.908Z,62.70
2018-02-20T20:40:08.601Z,56.90
2018-02-20T20:42:37.057Z,52.70
2018-02-20T20:45:04.742Z,50.95
2018-02-20T20:47:32.216Z,57.03
2018-02-20T20:49:59.732Z,56.50
2018-02-20T20:52:27.500Z,64.87
2018-02-20T20:54:55.268Z,62.33
2018-02-20T20:57:22.733Z,68.45
2018-02-20T20:59:51.104Z,72.20
2018-02-20T21:02:18.718Z,62.25
2018-02-20T21:04:46.169Z,60.05
2018-02-20T21:07:13.619Z,55.30
2018-02-20T21:09:41.164Z,62.67
2018-02-20T21:12:09.531Z,61.97
2018-02-20T21:14:37.080Z,63.38
2018-02-20T21:17:04.536Z,53.30
2018-02-20T21:19:32.000Z,55.72
2018-02-20T21:21:59.571Z,54.45
2018-02-20T21:24:27.796Z,64.03
2018-02-20T21:26:55.320Z,64.47
2018-02-20T21:29:23.064Z,58.83
2018-02-20T21:31:50.532Z,50.95
2018-02-20T21:34:17.991Z,62.03
2018-02-20T21:36:45.738Z,56.33
2018-02-20T21:39:13.503Z,52.83
2018-02-20T21:41:41.188Z,58.92
2018-02-20T21:44:09.415Z,66.37
2018-02-20T21:46:37.105Z,64.28
2018-02-20T21:49:04.873Z,71.53
2018-02-20T21:51:32.343Z,70.95
2018-02-20T21:53:59.920Z,63.58
2018-02-20T21:56:28.172Z,54.00
2018-02-20T21:58:55.631Z,64.95
2018-02-20T22:01:23.103Z,62.62
2018-02-20T22:03:50.851Z,63.45
2018-02-20T22:06:18.539Z,68.22
2018-02-20T22:08:46.068Z,68.93
2018-02-20T22:11:13.835Z,65.20
2018-02-20T22:13:41.307Z,71.18
2018-02-20T22:16:08.774Z,60.83
2018-02-20T22:18:36.519Z,68.18
2018-02-20T22:21:04.004Z,80.85
2018-02-20T22:23:31.477Z,58.15
2018-02-20T22:25:59.346Z,62.70
2018-02-20T22:28:26.812Z,62.45
2018-02-20T22:30:54.424Z,71.43
2018-02-20T22:33:21.893Z,70.60
2018-02-20T22:35:49.639Z,54.80
2018-02-20T22:38:17.402Z,65.03
2018-02-20T22:40:45.172Z,74.40
2018-02-20T22:43:12.936Z,66.57
2018-02-20T22:45:40.627Z,66.55
2018-02-20T22:48:08.159Z,80.85
2018-02-20T22:50:35.832Z,58.50
2018-02-20T22:53:03.299Z,68.20
2018-02-20T22:55:30.765Z,70.68
2018-02-20T22:57:59.140Z,68.70
2018-02-20T23:00:26.684Z,65.75
2018-02-20T23:02:54.209Z,62.60
2018-02-20T23:05:21.812Z,64.93
2018-02-20T23:07:50.048Z,61.88
2018-02-20T23:10:17.664Z,67.85
2018-02-20T23:12:45.175Z,63.15
2018-02-20T23:15:12.648Z,71.00
2018-02-20T23:17:40.120Z,67.35
2018-02-20T23:20:07.587Z,59.05
2018-02-20T23:22:35.219Z,86.82
2018-02-20T23:25:02.714Z,60.72
2018-02-20T23:27:30.175Z,67.87
2018-02-20T23:29:58.551Z,74.22
2018-02-20T23:32:26.096Z,62.13
2018-02-20T23:34:53.857Z,58.35
2018-02-20T23:37:21.368Z,76.53
2018-02-20T23:39:49.080Z,70.10
2018-02-20T23:42:16.844Z,66.15
2018-02-20T23:44:44.612Z,59.38
2018-02-20T23:47:12.327Z,60.55
2018-02-20T23:49:39.807Z,59.63
2018-02-20T23:52:08.210Z,66.70
2018-02-20T23:54:35.854Z,61.45
2018-02-20T23:57:03.435Z,66.78
2018-02-20T23:59:31.203Z,69.00
